Time;durP1;ratioP1;P1;durP2;ratioP2;P2;SDS_P1;SDS_P2;PMS_P1;PMS_P2;Temp;Humidity;BMP_temperature;BMP_pressure;BME280_temperature;BME280_humidity;BME280_pressure;Samples;Min_cycle;Max_cycle;Signal;HPM_P1;HPM_P2
2022/11/04 00:54:17;;;;;;;12.25;5.15;;;14.90;99.90;;;;;;5018978;28;20041;-65
2022/11/04 00:57:21;;;;;;;8.38;3.70;;;14.90;99.90;;;;;;5031533;28;20060;-65
2022/11/04 01:00:25;;;;;;;7.93;3.50;;;14.80;99.90;;;;;;5031356;28;20500;-65
2022/11/04 01:03:29;;;;;;;6.35;2.90;;;14.80;99.90;;;;;;5031403;28;20060;-64
2022/11/04 01:06:33;;;;;;;5.50;3.15;;;14.80;99.90;;;;;;5031430;28;20472;-65
2022/11/04 01:09:37;;;;;;;7.03;3.20;;;14.80;99.90;;;;;;5031155;28;20500;-64
2022/11/04 01:12:41;;;;;;;9.35;3.17;;;14.80;99.90;;;;;;5031028;28;20385;-65
2022/11/04 01:15:45;;;;;;;4.28;3.00;;;14.70;99.90;;;;;;5031332;28;20052;-65
2022/11/04 01:18:49;;;;;;;9.65;3.63;;;14.80;99.90;;;;;;5031300;28;20501;-64
2022/11/04 01:21:53;;;;;;;8.13;3.20;;;14.80;99.90;;;;;;5031063;28;20052;-65
2022/11/04 01:24:57;;;;;;;8.95;4.03;;;14.70;99.90;;;;;;5030843;28;20140;-65
2022/11/04 01:28:01;;;;;;;7.38;3.30;;;14.70;99.90;;;;;;5031506;28;20112;-65
2022/11/04 01:31:07;;;;;;;6.32;3.35;;;14.70;99.90;;;;;;5031311;28;20036;-64
2022/11/04 01:34:11;;;;;;;6.18;3.55;;;14.80;99.90;;;;;;5030805;28;20036;-65
2022/11/04 01:37:15;;;;;;;10.10;4.53;;;14.90;99.90;;;;;;5031374;28;20515;-65
2022/11/04 01:40:19;;;;;;;11.48;4.50;;;14.80;99.90;;;;;;5031210;28;20120;-64
2022/11/04 01:43:41;;;;;;;10.35;4.28;;;14.80;99.90;;;;;;5029946;28;20045;-64
2022/11/04 01:46:49;;;;;;;10.75;5.00;;;14.80;99.90;;;;;;5034825;28;20053;-64
2022/11/04 01:50:01;;;;;;;6.57;3.95;;;14.80;99.90;;;;;;5034695;28;20052;-64
2022/11/04 01:53:20;;;;;;;11.68;5.95;;;14.80;99.90;;;;;;5034723;28;20037;-64
2022/11/04 01:56:25;;;;;;;10.15;4.80;;;14.80;99.90;;;;;;5034414;28;20041;-64
2022/11/04 01:59:34;;;;;;;9.65;4.55;;;14.80;99.90;;;;;;5034900;28;20040;-65
2022/11/04 02:02:51;;;;;;;6.32;3.80;;;14.80;99.90;;;;;;5033499;28;20044;-65
2022/11/04 02:05:56;;;;;;;9.20;3.80;;;14.70;99.90;;;;;;5034447;28;20041;-65
2022/11/04 02:09:00;;;;;;;8.30;3.33;;;14.70;99.90;;;;;;5034165;28;20108;-66
2022/11/04 02:15:43;;;;;;;6.70;3.63;;;14.70;99.90;;;;;;5034064;28;20401;-65
2022/11/04 02:19:12;;;;;;;7.72;3.15;;;14.70;99.90;;;;;;5034385;28;20036;-65
2022/11/04 02:22:41;;;;;;;9.80;3.10;;;14.60;99.90;;;;;;5024036;28;20048;-65
2022/11/04 02:26:16;;;;;;;6.97;3.00;;;14.70;99.90;;;;;;5033990;28;20049;-65
2022/11/04 02:29:46;;;;;;;6.25;3.53;;;14.70;99.90;;;;;;5034126;28;20511;-65
2022/11/04 02:32:50;;;;;;;7.70;3.58;;;14.60;99.90;;;;;;5025472;28;20056;-65
2022/11/04 02:36:00;;;;;;;5.80;3.20;;;14.60;99.90;;;;;;5033777;28;20048;-64
2022/11/04 02:39:21;;;;;;;6.93;4.30;;;14.50;99.90;;;;;;5033891;28;20060;-65
2022/11/04 02:42:58;;;;;;;6.57;3.33;;;14.60;99.90;;;;;;5032880;28;20048;-65
2022/11/04 02:46:09;;;;;;;9.93;3.55;;;14.60;99.90;;;;;;5033769;28;20048;-65
2022/11/04 02:49:18;;;;;;;11.02;4.43;;;14.70;99.90;;;;;;5033479;28;20060;-65
2022/11/04 02:52:40;;;;;;;8.57;4.32;;;14.70;99.90;;;;;;5033543;28;20393;-65
2022/11/04 02:55:51;;;;;;;9.02;4.65;;;14.60;99.90;;;;;;5033543;28;20384;-65
2022/11/04 02:59:02;;;;;;;7.50;4.75;;;14.70;99.90;;;;;;5033339;28;20044;-66
2022/11/04 03:02:11;;;;;;;9.25;4.43;;;14.70;99.90;;;;;;5033345;28;20049;-66
2022/11/04 03:05:21;;;;;;;9.77;4.60;;;14.90;99.90;;;;;;5021161;28;20048;-66
2022/11/04 03:08:36;;;;;;;10.95;4.70;;;14.90;99.90;;;;;;5032963;28;20040;-65
2022/11/04 03:11:43;;;;;;;11.23;4.82;;;15.00;99.90;;;;;;5033217;28;20405;-65
2022/11/04 03:14:53;;;;;;;14.40;4.60;;;15.10;99.90;;;;;;5032840;28;20053;-66
2022/11/04 03:18:06;;;;;;;8.77;4.05;;;15.10;99.90;;;;;;5033285;28;20373;-65
2022/11/04 03:21:13;;;;;;;11.20;4.43;;;15.10;99.90;;;;;;5032948;28;20082;-65
2022/11/04 03:24:17;;;;;;;10.93;4.78;;;15.10;99.90;;;;;;5032693;28;20049;-66
2022/11/04 03:27:36;;;;;;;19.20;5.80;;;15.10;99.90;;;;;;5032696;28;20464;-65
2022/11/04 03:30:46;;;;;;;10.43;4.93;;;15.00;99.90;;;;;;5033039;28;20048;-65
2022/11/04 03:33:52;;;;;;;12.32;5.40;;;15.00;99.90;;;;;;5032683;28;20040;-66
2022/11/04 03:36:57;;;;;;;13.15;5.32;;;15.00;99.90;;;;;;5032715;28;20040;-66
2022/11/04 03:40:02;;;;;;;13.30;5.55;;;15.00;99.90;;;;;;5032534;28;20041;-66
2022/11/04 03:43:22;;;;;;;12.23;5.38;;;15.10;99.90;;;;;;5032419;28;20041;-66
2022/11/04 03:46:27;;;;;;;11.95;5.50;;;15.10;99.90;;;;;;5032467;28;20048;-66
2022/11/04 03:49:32;;;;;;;19.75;6.38;;;14.90;99.90;;;;;;5032519;28;20052;-66
2022/11/04 03:52:35;;;;;;;14.02;5.72;;;14.90;99.90;;;;;;5032400;28;20057;-67
2022/11/04 03:56:01;;;;;;;17.33;5.75;;;15.00;99.90;;;;;;5032431;28;20385;-66
2022/11/04 03:59:05;;;;;;;12.55;5.93;;;15.00;99.90;;;;;;5032103;28;20040;-66
2022/11/04 04:02:47;;;;;;;12.02;5.75;;;15.00;99.90;;;;;;5032240;28;20052;-66
2022/11/04 04:06:02;;;;;;;12.45;6.00;;;15.00;99.90;;;;;;5020041;28;20036;-67
2022/11/04 04:09:43;;;;;;;13.75;5.75;;;15.00;99.90;;;;;;5030964;28;20515;-66
2022/11/04 04:12:48;;;;;;;15.98;6.30;;;15.00;99.90;;;;;;5032056;28;20068;-66
2022/11/04 04:16:01;;;;;;;16.85;5.72;;;14.90;99.90;;;;;;5031630;28;20037;-66
2022/11/04 04:19:15;;;;;;;20.08;5.78;;;15.10;99.90;;;;;;5032425;28;20052;-66
2022/11/04 04:22:29;;;;;;;15.45;6.03;;;15.20;99.90;;;;;;5031691;28;20040;-66
2022/11/04 04:28:56;;;;;;;;;;;15.40;99.90;;;;;;5032084;28;20052;-66
2022/11/04 04:32:02;;;;;;;11.32;5.75;;;15.40;99.90;;;;;;5031607;28;19916;-66
2022/11/04 04:45:37;;;;;;;13.43;6.07;;;15.50;99.90;;;;;;5031457;28;20053;-66
2022/11/04 04:48:41;;;;;;;15.55;7.22;;;15.40;99.90;;;;;;5031188;28;20392;-65
2022/11/04 04:51:46;;;;;;;10.85;5.78;;;15.40;99.90;;;;;;5030998;28;20033;-65
2022/11/04 04:54:50;;;;;;;10.95;5.88;;;15.40;99.90;;;;;;5031426;28;20491;-66
2022/11/04 04:57:54;;;;;;;11.80;5.80;;;15.50;99.90;;;;;;5031401;28;20045;-66
2022/11/04 05:00:58;;;;;;;14.55;5.97;;;15.50;99.90;;;;;;5031564;28;20052;-65
2022/11/04 05:04:02;;;;;;;15.05;5.40;;;15.50;99.90;;;;;;5031061;28;20048;-66
2022/11/04 05:07:08;;;;;;;10.32;5.45;;;15.50;99.90;;;;;;5031358;28;20069;-65
2022/11/04 05:10:14;;;;;;;11.77;6.60;;;15.50;99.90;;;;;;5031259;28;20044;-66
2022/11/04 05:13:24;;;;;;;11.60;5.00;;;15.50;99.90;;;;;;5031233;28;20036;-66
2022/11/04 05:16:28;;;;;;;18.10;4.72;;;15.50;99.90;;;;;;5030886;28;20045;-66
2022/11/04 05:19:32;;;;;;;8.52;3.65;;;15.50;99.90;;;;;;5031553;28;20396;-65
2022/11/04 05:22:36;;;;;;;11.73;4.20;;;15.50;99.90;;;;;;5035025;28;20048;-65
2022/11/04 05:25:41;;;;;;;10.98;4.80;;;15.50;99.90;;;;;;5035296;28;20508;-65
2022/11/04 05:28:45;;;;;;;8.30;3.83;;;15.50;99.90;;;;;;5034952;28;20057;-65
2022/11/04 05:31:49;;;;;;;11.10;4.65;;;15.50;99.90;;;;;;5035146;28;20048;-65
2022/11/04 05:34:53;;;;;;;7.22;3.80;;;15.40;99.90;;;;;;5035015;28;20044;-65
2022/11/04 05:37:57;;;;;;;6.63;4.13;;;15.50;99.90;;;;;;5022862;28;20056;-65
2022/11/04 05:41:01;;;;;;;6.30;3.80;;;15.40;99.90;;;;;;5035049;28;20049;-66
2022/11/04 05:44:07;;;;;;;9.40;4.22;;;15.50;99.90;;;;;;5034564;28;20036;-65
2022/11/04 05:47:11;;;;;;;9.32;3.92;;;15.50;99.90;;;;;;5034880;28;20041;-66
2022/11/04 05:50:15;;;;;;;7.40;3.60;;;15.50;99.90;;;;;;5034999;28;20396;-65
2022/11/04 05:53:19;;;;;;;8.43;3.90;;;15.50;99.90;;;;;;5022330;28;20503;-66
2022/11/04 05:56:23;;;;;;;9.45;3.95;;;15.60;99.90;;;;;;5034705;28;20049;-66
2022/11/04 05:59:27;;;;;;;7.28;3.80;;;15.60;99.90;;;;;;5034612;28;20053;-65
2022/11/04 06:02:31;;;;;;;9.32;3.70;;;15.60;99.90;;;;;;5034467;28;20044;-65
2022/11/04 06:05:35;;;;;;;10.93;3.60;;;15.60;99.90;;;;;;5034342;28;20377;-66
2022/11/04 06:08:39;;;;;;;6.85;4.38;;;15.70;99.90;;;;;;5034141;28;20594;-65
2022/11/04 06:11:44;;;;;;;9.23;4.38;;;15.80;99.90;;;;;;5034457;28;20037;-65
2022/11/04 06:14:48;;;;;;;7.70;3.38;;;15.90;99.90;;;;;;5034013;28;20492;-64
2022/11/04 06:17:52;;;;;;;7.45;4.00;;;16.00;99.90;;;;;;5034715;28;20052;-65
2022/11/04 06:21:26;;;;;;;9.15;4.07;;;16.10;99.90;;;;;;5033639;28;20048;-65
2022/11/04 06:24:30;;;;;;;11.88;4.43;;;16.10;99.90;;;;;;5033775;28;20048;-65
2022/11/04 06:27:34;;;;;;;12.70;4.32;;;16.10;99.90;;;;;;5045985;28;20052;-65
2022/11/04 06:30:38;;;;;;;11.27;4.20;;;16.10;99.90;;;;;;5053464;28;20048;-65
2022/11/04 06:33:42;;;;;;;15.85;4.43;;;16.20;99.90;;;;;;5053088;28;20055;-64
2022/11/04 06:36:48;;;;;;;7.78;4.30;;;16.20;99.90;;;;;;5053829;28;20040;-66
2022/11/04 06:39:52;;;;;;;14.98;5.03;;;16.20;99.90;;;;;;5052865;28;20842;-65
2022/11/04 06:42:56;;;;;;;14.07;5.32;;;16.00;99.90;;;;;;5053178;28;20048;-65
2022/11/04 06:46:01;;;;;;;7.50;4.18;;;15.90;99.90;;;;;;5053733;28;20491;-65
2022/11/04 06:49:06;;;;;;;10.52;4.93;;;15.90;99.90;;;;;;5053662;28;20044;-65
2022/11/04 06:52:10;;;;;;;13.07;4.70;;;15.90;99.90;;;;;;5053770;28;20076;-65
2022/11/04 06:55:14;;;;;;;15.65;5.95;;;15.90;99.90;;;;;;5053072;28;20392;-66
2022/11/04 06:58:18;;;;;;;13.55;5.05;;;15.90;99.90;;;;;;5053705;28;20044;-65
2022/11/04 07:01:25;;;;;;;11.63;5.22;;;16.00;99.90;;;;;;5053341;28;20056;-65
2022/11/04 07:04:29;;;;;;;9.75;4.38;;;16.10;99.90;;;;;;5052862;28;20052;-65
2022/11/04 07:07:33;;;;;;;11.13;4.47;;;16.20;99.90;;;;;;5051373;28;20043;-65
2022/11/04 07:10:37;;;;;;;11.48;3.75;;;16.40;99.90;;;;;;5049819;28;20041;-65
2022/11/04 07:13:41;;;;;;;12.73;4.13;;;16.60;99.90;;;;;;5051811;28;20396;-65
2022/11/04 07:16:48;;;;;;;11.95;4.20;;;16.70;99.90;;;;;;5047922;28;20035;-66
2022/11/04 07:19:52;;;;;;;14.27;4.85;;;16.70;99.90;;;;;;5032486;28;20416;-66
2022/11/04 07:22:56;;;;;;;9.90;4.18;;;16.70;99.90;;;;;;5040503;28;20519;-65
2022/11/04 07:26:01;;;;;;;11.38;3.30;;;16.70;99.90;;;;;;5044077;28;20052;-65
2022/11/04 07:29:06;;;;;;;12.63;4.72;;;16.80;99.90;;;;;;5043455;28;20048;-65
2022/11/04 07:32:10;;;;;;;12.10;3.47;;;16.70;99.90;;;;;;5043784;28;20044;-66
2022/11/04 07:35:14;;;;;;;8.98;3.60;;;16.60;99.90;;;;;;5045803;28;20039;-65
2022/11/04 07:38:18;;;;;;;15.38;5.75;;;16.70;99.90;;;;;;5048401;28;20060;-66
2022/11/04 07:41:22;;;;;;;11.65;3.70;;;16.70;99.90;;;;;;5032458;28;20056;-66
2022/11/04 07:44:27;;;;;;;10.55;3.40;;;16.80;99.90;;;;;;5048921;28;20055;-65
2022/11/04 07:47:31;;;;;;;6.88;2.67;;;16.90;99.90;;;;;;5037018;28;20408;-65
2022/11/04 07:50:38;;;;;;;12.02;3.50;;;17.00;99.90;;;;;;5032162;28;20051;-65
2022/11/04 07:53:43;;;;;;;9.57;3.50;;;17.10;99.90;;;;;;5049701;28;20064;-66
2022/11/04 07:56:47;;;;;;;8.02;3.33;;;17.20;99.90;;;;;;5049317;28;20036;-65
2022/11/04 07:59:51;;;;;;;11.15;3.10;;;17.40;99.90;;;;;;5036852;28;20044;-65
2022/11/04 08:02:55;;;;;;;13.50;3.00;;;17.80;99.90;;;;;;5046844;28;20051;-65
2022/11/04 08:06:01;;;;;;;8.95;2.33;;;18.30;99.90;;;;;;5048885;28;20048;-66
2022/11/04 08:09:05;;;;;;;12.88;2.88;;;18.90;99.90;;;;;;5043008;28;20392;-65
2022/11/04 08:12:09;;;;;;;9.10;2.40;;;19.50;99.90;;;;;;5047730;28;20036;-66
2022/11/04 08:15:13;;;;;;;20.55;4.03;;;19.90;99.90;;;;;;5049437;28;20044;-66
2022/11/04 08:18:17;;;;;;;12.25;1.85;;;20.30;99.90;;;;;;5049894;28;20499;-66
2022/11/04 08:21:21;;;;;;;16.55;2.50;;;20.30;99.90;;;;;;5031770;28;20044;-65
2022/11/04 08:24:25;;;;;;;11.60;2.90;;;20.50;99.90;;;;;;5043539;28;20518;-67
2022/11/04 08:27:29;;;;;;;10.48;3.05;;;20.60;99.90;;;;;;5049041;28;20052;-66
2022/11/04 08:30:34;;;;;;;6.72;1.95;;;20.70;99.90;;;;;;5040648;28;20040;-66
2022/11/04 08:33:38;;;;;;;9.38;1.83;;;20.40;99.90;;;;;;5050841;28;20056;-66
2022/11/04 08:36:42;;;;;;;12.00;2.08;;;20.20;99.90;;;;;;5049413;28;20040;-66
2022/11/04 08:39:46;;;;;;;8.65;1.73;;;20.20;99.90;;;;;;5048872;28;20048;-66
2022/11/04 08:42:50;;;;;;;8.70;1.77;;;21.80;99.90;;;;;;5043860;28;20060;-67
2022/11/04 08:45:54;;;;;;;13.65;2.10;;;22.80;99.90;;;;;;5046360;28;20510;-66
2022/11/04 08:48:58;;;;;;;9.23;1.40;;;24.90;99.90;;;;;;5044910;28;20048;-65
2022/11/04 08:52:03;;;;;;;4.07;1.42;;;27.10;99.90;;;;;;5047903;28;20499;-65
2022/11/04 08:55:07;;;;;;;7.70;2.10;;;27.30;97.40;;;;;;5048485;28;20048;-65
2022/11/04 08:58:13;;;;;;;7.10;1.75;;;26.60;98.20;;;;;;5046822;28;20044;-66
2022/11/04 09:01:17;;;;;;;8.85;1.65;;;26.40;99.20;;;;;;5046429;28;20040;-66
2022/11/04 09:04:22;;;;;;;8.52;1.30;;;24.80;98.00;;;;;;5030790;28;20056;-66
2022/11/04 09:07:28;;;;;;;9.52;2.35;;;24.30;99.90;;;;;;5035042;28;20040;-66
2022/11/04 09:10:32;;;;;;;7.65;1.50;;;24.00;99.90;;;;;;5042736;28;20056;-65
2022/11/04 09:13:37;;;;;;;9.13;1.70;;;24.10;99.90;;;;;;5045088;28;20040;-66
2022/11/04 09:16:41;;;;;;;11.90;2.20;;;23.80;99.90;;;;;;5037570;28;20036;-65
2022/11/04 09:19:45;;;;;;;7.35;1.77;;;23.30;99.90;;;;;;5045439;28;20047;-66
2022/11/04 09:22:49;;;;;;;14.10;1.92;;;23.00;99.90;;;;;;5048316;28;20497;-65
2022/11/04 09:25:56;;;;;;;7.60;1.67;;;22.50;99.90;;;;;;5042165;28;20048;-66
2022/11/04 09:29:00;;;;;;;10.18;1.95;;;21.90;99.90;;;;;;5034942;28;20482;-65
2022/11/04 09:32:04;;;;;;;9.73;1.77;;;21.90;99.90;;;;;;5045736;28;20376;-66
2022/11/04 09:35:09;;;;;;;9.32;2.20;;;22.10;99.90;;;;;;5047671;28;20052;-65
2022/11/04 09:38:13;;;;;;;8.73;1.63;;;22.40;99.90;;;;;;5045501;28;20051;-66
2022/11/04 09:41:41;;;;;;;10.18;1.83;;;22.80;99.90;;;;;;5038321;28;20120;-65
2022/11/04 09:44:51;;;;;;;9.95;1.67;;;23.00;98.60;;;;;;5047610;28;20059;-66
2022/11/04 09:48:04;;;;;;;9.27;1.67;;;25.30;99.00;;;;;;5049762;28;20040;-66
2022/11/04 09:51:08;;;;;;;5.80;2.15;;;26.80;99.10;;;;;;5041307;28;20048;-66
2022/11/04 09:54:39;;;;;;;7.90;2.00;;;27.40;97.80;;;;;;5042720;28;20048;-66
2022/11/04 09:57:53;;;;;;;6.53;1.93;;;27.00;97.50;;;;;;5033729;28;20052;-66
2022/11/04 10:01:10;;;;;;;11.93;1.98;;;27.50;96.30;;;;;;5039126;28;20495;-66
2022/11/04 10:04:23;;;;;;;11.68;2.08;;;28.00;96.20;;;;;;5032802;28;20040;-66
2022/11/04 10:07:33;;;;;;;9.50;2.28;;;28.10;95.50;;;;;;5047133;28;20044;-66
2022/11/04 10:10:42;;;;;;;9.88;1.92;;;27.70;96.30;;;;;;5048442;28;20672;-66
2022/11/04 10:13:56;;;;;;;9.00;1.98;;;28.00;94.80;;;;;;5052994;28;20036;-66
2022/11/04 10:17:19;;;;;;;12.15;2.28;;;27.70;95.60;;;;;;5049011;28;20037;-66
2022/11/04 10:20:53;;;;;;;7.25;1.77;;;26.40;95.00;;;;;;5057206;28;20036;-66
2022/11/04 10:24:00;;;;;;;11.23;2.03;;;26.20;96.40;;;;;;5037643;28;20060;-67
2022/11/04 10:27:19;;;;;;;6.75;1.88;;;27.70;94.80;;;;;;5046089;28;20056;-67
2022/11/04 10:30:24;;;;;;;4.60;1.52;;;29.50;94.80;;;;;;5033108;28;20056;-67
2022/11/04 10:33:40;;;;;;;9.07;1.42;;;31.30;92.50;;;;;;5044954;28;20432;-67
2022/11/04 10:36:47;;;;;;;8.80;2.00;;;31.90;92.00;;;;;;5046474;28;20036;-67
2022/11/04 10:40:00;;;;;;;12.07;2.00;;;32.10;88.10;;;;;;5038726;28;20611;-67
2022/11/04 10:43:12;;;;;;;8.23;1.70;;;33.50;87.50;;;;;;5048325;28;20044;-66
2022/11/04 10:46:44;;;;;;;6.70;1.40;;;34.90;87.20;;;;;;5049540;28;20048;-66
2022/11/04 10:49:54;;;;;;;6.25;1.50;;;35.20;79.90;;;;;;5041688;28;20040;-66
2022/11/04 10:53:17;;;;;;;5.68;1.40;;;36.30;79.40;;;;;;5044870;28;20040;-66
2022/11/04 10:56:43;;;;;;;13.00;1.80;;;35.50;77.10;;;;;;5041235;28;20534;-66
2022/11/04 10:59:48;;;;;;;8.93;1.83;;;29.30;80.40;;;;;;5043256;28;20040;-66
2022/11/04 11:02:52;;;;;;;8.20;2.00;;;29.10;81.30;;;;;;5047344;28;20052;-66
2022/11/04 11:06:33;;;;;;;10.13;2.45;;;29.20;84.20;;;;;;5045021;28;20048;-66
2022/11/04 11:09:40;;;;;;;10.70;2.33;;;25.40;89.90;;;;;;5030194;28;20043;-65
2022/11/04 11:12:51;;;;;;;11.07;1.75;;;24.90;92.00;;;;;;5046678;28;20048;-66
2022/11/04 11:16:19;;;;;;;10.43;2.15;;;24.30;92.70;;;;;;5034399;28;20052;-66
2022/11/04 11:19:24;;;;;;;8.57;2.78;;;27.80;92.40;;;;;;5040763;28;20044;-66
2022/11/04 11:22:39;;;;;;;6.82;1.90;;;31.20;89.80;;;;;;5043387;28;20048;-67
2022/11/04 11:25:49;;;;;;;10.60;2.38;;;34.50;84.90;;;;;;5049519;28;20518;-67
2022/11/04 11:28:56;;;;;;;10.00;1.83;;;34.90;80.70;;;;;;5045119;28;20490;-65
2022/11/04 11:32:01;;;;;;;8.40;2.10;;;32.10;76.90;;;;;;5044448;28;20044;-66
2022/11/04 11:35:17;;;;;;;12.65;1.70;;;31.40;82.70;;;;;;5041022;28;20045;-66
2022/11/04 11:38:24;;;;;;;10.82;1.80;;;29.10;85.50;;;;;;5043176;28;20057;-65
2022/11/04 11:41:32;;;;;;;7.82;2.45;;;29.50;86.00;;;;;;5045133;28;20044;-64
2022/11/04 11:44:43;;;;;;;6.10;2.00;;;28.50;83.00;;;;;;5039728;28;20040;-66
2022/11/04 11:47:53;;;;;;;8.35;1.95;;;27.00;86.40;;;;;;5047150;28;20048;-66
2022/11/04 11:50:58;;;;;;;10.85;2.00;;;27.40;84.70;;;;;;5041179;28;20047;-66
2022/11/04 11:54:18;;;;;;;9.13;1.50;;;26.30;86.00;;;;;;5044503;28;20048;-66
2022/11/04 11:57:34;;;;;;;7.50;1.38;;;26.60;87.20;;;;;;5032862;28;20060;-66
2022/11/04 12:01:28;;;;;;;10.35;2.33;;;26.00;87.20;;;;;;5041772;28;20040;-65
2022/11/04 12:04:32;;;;;;;7.97;1.20;;;26.80;87.20;;;;;;5047549;28;20032;-66
2022/11/04 12:07:52;;;;;;;13.07;1.73;;;26.60;85.00;;;;;;5051653;28;20051;-66
2022/11/04 12:11:26;;;;;;;6.07;1.30;;;26.40;85.10;;;;;;5041308;28;20395;-65
2022/11/04 12:14:51;;;;;;;11.50;2.55;;;25.10;86.30;;;;;;5038934;28;20379;-65
2022/11/04 12:18:25;;;;;;;7.68;1.65;;;24.80;87.10;;;;;;5041079;28;20044;-65
2022/11/04 12:21:39;;;;;;;13.48;2.15;;;24.60;88.90;;;;;;5043366;28;20071;-64
2022/11/04 12:24:55;;;;;;;7.93;1.38;;;25.50;89.00;;;;;;5044254;28;20047;-65
2022/11/04 12:28:28;;;;;;;7.18;2.03;;;26.40;86.30;;;;;;5046217;28;20048;-67
2022/11/04 12:31:34;;;;;;;8.23;1.52;;;26.00;86.20;;;;;;5045223;28;20048;-66
2022/11/04 12:34:47;;;;;;;7.70;1.60;;;26.30;86.80;;;;;;5042572;28;20119;-67
2022/11/04 12:38:32;;;;;;;7.72;1.45;;;27.50;84.50;;;;;;5025113;28;20063;-67
2022/11/04 12:41:53;;;;;;;10.23;2.03;;;28.90;84.90;;;;;;5032388;28;20044;-65
2022/11/04 12:45:15;;;;;;;10.70;1.88;;;27.00;84.10;;;;;;5037885;28;20036;-66
2022/11/04 12:48:46;;;;;;;13.57;2.40;;;26.80;85.90;;;;;;5033733;28;20051;-66
2022/11/04 12:52:08;;;;;;;12.70;2.03;;;27.10;86.40;;;;;;5045225;28;20395;-66
2022/11/04 12:55:38;;;;;;;9.52;1.40;;;24.60;87.30;;;;;;5039053;28;20067;-66
2022/11/04 12:59:19;;;;;;;8.40;1.90;;;23.00;88.00;;;;;;5046466;28;20051;-66
2022/11/04 13:02:31;;;;;;;13.20;2.00;;;21.80;90.80;;;;;;5039753;28;20391;-66
2022/11/04 13:05:45;;;;;;;7.72;1.73;;;22.00;91.70;;;;;;5044456;28;20036;-66
2022/11/04 13:08:52;;;;;;;9.32;2.20;;;22.50;90.30;;;;;;5042610;28;20041;-65
2022/11/04 13:12:06;;;;;;;11.38;1.58;;;21.90;91.40;;;;;;5043270;28;20502;-65
2022/11/04 13:15:19;;;;;;;8.30;2.03;;;21.50;92.40;;;;;;5046786;28;20494;-66
2022/11/04 13:18:27;;;;;;;8.68;1.77;;;21.20;92.30;;;;;;5047986;28;20047;-64
2022/11/04 13:21:35;;;;;;;13.18;1.73;;;20.10;91.80;;;;;;5048247;28;20392;-67
2022/11/04 13:24:52;;;;;;;6.53;1.27;;;20.10;93.60;;;;;;5042746;28;20036;-66
2022/11/04 13:27:58;;;;;;;12.60;1.60;;;21.00;94.00;;;;;;5039891;28;20058;-67
2022/11/04 13:31:18;;;;;;;7.47;1.73;;;23.20;90.80;;;;;;5043233;28;20060;-67
2022/11/04 13:35:01;;;;;;;7.78;1.50;;;23.90;88.20;;;;;;5044861;28;20526;-67
2022/11/04 13:38:15;;;;;;;8.27;1.92;;;26.00;87.60;;;;;;5039236;28;20036;-67
2022/11/04 13:41:31;;;;;;;10.57;1.52;;;27.20;82.20;;;;;;5041137;28;20047;-65
2022/11/04 13:44:43;;;;;;;11.02;1.73;;;25.40;83.70;;;;;;5048870;28;20049;-65
2022/11/04 13:47:49;;;;;;;9.85;1.60;;;25.20;84.50;;;;;;5046679;28;20045;-67
2022/11/04 13:51:06;;;;;;;11.07;2.00;;;23.40;86.00;;;;;;5043594;28;20420;-66
2022/11/04 13:54:28;;;;;;;11.10;1.70;;;25.10;87.40;;;;;;5046377;28;20044;-67
2022/11/04 13:57:50;;;;;;;11.65;2.13;;;26.30;83.40;;;;;;5044231;28;20037;-66
2022/11/04 14:01:12;;;;;;;;;;;27.00;85.50;;;;;;5050814;28;20490;-67
2022/11/04 14:04:30;;;;;;;7.43;1.20;;;26.80;84.00;;;;;;5048896;28;20375;-67
2022/11/04 14:08:02;;;;;;;7.03;1.83;;;26.90;83.20;;;;;;5040021;28;20052;-66
2022/11/04 14:11:09;;;;;;;12.27;1.75;;;27.50;83.10;;;;;;5051809;28;20047;-67
2022/11/04 14:14:18;;;;;;;9.93;1.42;;;26.70;83.10;;;;;;5049216;28;20032;-67
2022/11/04 14:17:34;;;;;;;8.73;1.58;;;23.40;89.10;;;;;;5049499;28;20060;-66
2022/11/04 14:21:06;;;;;;;8.88;1.63;;;22.90;90.50;;;;;;5041772;28;20117;-66
2022/11/04 14:24:11;;;;;;;;;;;22.30;90.70;;;;;;5044731;28;20041;-66
2022/11/04 14:27:34;;;;;;;10.48;2.22;;;21.80;92.10;;;;;;5045017;28;20291;-66
2022/11/04 14:30:51;;;;;;;11.30;2.90;;;21.50;92.40;;;;;;5046797;28;20380;-67
2022/11/04 14:33:56;;;;;;;16.73;2.38;;;20.90;93.60;;;;;;5046155;28;20051;-66
2022/11/04 14:37:13;;;;;;;10.68;2.33;;;20.00;94.80;;;;;;5049719;28;20053;-64
2022/11/04 14:40:45;;;;;;;16.80;3.03;;;19.60;95.40;;;;;;5047033;28;20055;-66
2022/11/04 14:43:53;;;;;;;17.05;2.63;;;19.90;96.00;;;;;;5047632;28;20396;-67
2022/11/04 14:47:18;;;;;;;14.80;2.28;;;19.80;95.70;;;;;;5049739;28;20112;-66
2022/11/04 14:50:26;;;;;;;21.02;2.78;;;19.60;95.40;;;;;;5050056;28;20039;-65
2022/11/04 14:53:31;;;;;;;15.23;2.40;;;18.70;96.90;;;;;;5044740;28;20040;-66
2022/11/04 14:56:35;;;;;;;20.20;3.35;;;18.50;98.70;;;;;;5044618;28;20123;-66
2022/11/04 14:59:39;;;;;;;16.77;2.45;;;18.30;98.70;;;;;;5033595;28;20511;-66
2022/11/04 15:02:43;;;;;;;10.40;2.28;;;18.60;98.90;;;;;;5041497;28;20067;-66
2022/11/04 15:05:59;;;;;;;14.52;2.55;;;18.90;99.60;;;;;;5046089;28;20502;-64
2022/11/04 15:09:17;;;;;;;16.17;2.42;;;18.50;98.50;;;;;;5044619;28;20049;-66
2022/11/04 15:15:49;;;;;;;19.25;2.70;;;18.00;99.90;;;;;;5039672;28;20044;-66
2022/11/04 15:18:56;;;;;;;16.55;2.70;;;17.90;99.90;;;;;;5052750;28;20396;-65
2022/11/04 15:22:02;;;;;;;16.05;3.00;;;17.70;99.90;;;;;;5040860;28;20040;-66
2022/11/04 15:25:10;;;;;;;16.60;2.30;;;18.00;99.90;;;;;;5051024;28;20056;-66
2022/11/04 15:28:21;;;;;;;14.98;2.58;;;17.90;99.90;;;;;;5051312;28;20055;-67
2022/11/04 15:31:31;;;;;;;21.35;4.32;;;17.60;99.90;;;;;;5038315;28;20052;-66
2022/11/04 15:34:35;;;;;;;15.43;2.67;;;17.60;99.90;;;;;;5044709;28;20048;-66
2022/11/04 15:37:41;;;;;;;18.40;2.70;;;17.30;99.90;;;;;;5041848;28;20055;-64
2022/11/04 15:40:45;;;;;;;15.20;2.33;;;16.50;99.90;;;;;;5046829;28;20048;-66
2022/11/04 15:43:49;;;;;;;26.65;3.17;;;16.50;99.90;;;;;;5052545;28;20044;-67
2022/11/04 15:46:59;;;;;;;18.48;3.17;;;16.40;99.90;;;;;;5047154;28;20044;-67
2022/11/04 15:50:20;;;;;;;15.65;2.47;;;16.10;99.90;;;;;;5050439;28;20052;-67
2022/11/04 15:53:24;;;;;;;22.83;4.28;;;15.80;99.90;;;;;;5032221;28;20381;-67
2022/11/04 15:56:37;;;;;;;17.83;2.58;;;15.60;99.90;;;;;;5049735;28;20032;-66
2022/11/04 15:59:48;;;;;;;17.58;2.60;;;15.50;99.90;;;;;;5040106;28;20052;-66
2022/11/04 16:02:57;;;;;;;20.60;3.15;;;15.20;99.90;;;;;;5037019;28;20045;-66
2022/11/04 16:06:06;;;;;;;23.38;3.30;;;15.10;99.90;;;;;;5047473;28;20611;-67
2022/11/04 16:09:24;;;;;;;19.75;3.00;;;15.00;99.90;;;;;;5045838;28;20514;-67
2022/11/04 16:12:34;;;;;;;18.88;3.25;;;14.90;99.90;;;;;;5036704;28;20036;-67
2022/11/04 16:15:44;;;;;;;14.57;2.45;;;14.80;99.90;;;;;;5047005;28;20044;-66
2022/11/04 16:18:54;;;;;;;16.50;2.45;;;14.80;99.90;;;;;;5043727;28;20036;-66
2022/11/04 16:22:05;;;;;;;18.73;3.33;;;14.70;99.90;;;;;;5041406;28;20039;-66
2022/11/04 16:25:20;;;;;;;15.20;2.38;;;14.60;99.90;;;;;;5047603;28;20044;-66
2022/11/04 16:28:29;;;;;;;13.88;3.63;;;14.50;99.90;;;;;;5040420;28;20032;-66
2022/11/04 16:31:34;;;;;;;22.95;3.55;;;14.40;99.90;;;;;;5045355;28;20064;-66
2022/11/04 16:34:39;;;;;;;20.20;3.13;;;14.20;99.90;;;;;;5039708;28;20036;-67
2022/11/04 16:37:43;;;;;;;21.92;3.70;;;14.20;99.90;;;;;;5048944;28;20051;-66
2022/11/04 16:40:48;;;;;;;19.00;3.78;;;14.10;99.90;;;;;;5053110;28;20068;-66
2022/11/04 16:43:53;;;;;;;21.30;3.97;;;14.10;99.90;;;;;;5031090;28;20071;-66
2022/11/04 16:46:58;;;;;;;16.85;3.13;;;14.10;99.90;;;;;;5050068;28;20048;-66
2022/11/04 16:50:11;;;;;;;20.08;2.90;;;14.10;99.90;;;;;;5050188;28;20055;-66
2022/11/04 16:53:15;;;;;;;17.30;2.72;;;14.10;99.90;;;;;;5044992;28;20388;-66
2022/11/04 16:56:25;;;;;;;16.20;2.75;;;14.00;99.90;;;;;;5039168;28;20048;-66
2022/11/04 16:59:29;;;;;;;17.85;3.40;;;14.10;99.90;;;;;;5045008;28;20044;-66
2022/11/04 17:02:39;;;;;;;22.83;4.57;;;14.00;99.90;;;;;;5046316;28;20036;-66
2022/11/04 17:05:43;;;;;;;21.38;3.20;;;14.00;99.90;;;;;;5042367;28;20044;-67
2022/11/04 17:08:47;;;;;;;26.00;4.15;;;13.90;99.90;;;;;;5038794;28;20387;-66
2022/11/04 17:11:51;;;;;;;23.30;6.10;;;13.80;99.90;;;;;;5051508;28;20511;-67
2022/11/04 17:14:56;;;;;;;26.17;5.25;;;13.80;99.90;;;;;;5050994;28;20574;-66
2022/11/04 17:18:00;;;;;;;20.63;6.22;;;13.70;99.90;;;;;;5055769;28;20037;-66
2022/11/04 17:21:07;;;;;;;30.85;9.30;;;13.70;99.90;;;;;;5055519;28;20040;-67
2022/11/04 17:24:11;;;;;;;28.35;7.03;;;13.70;99.90;;;;;;5055266;28;20048;-66
2022/11/04 17:27:15;;;;;;;15.27;4.20;;;13.70;99.90;;;;;;5055162;28;20048;-66
2022/11/04 17:30:24;;;;;;;21.63;4.47;;;13.70;99.90;;;;;;5055393;28;20068;-65
2022/11/04 17:33:28;;;;;;;16.73;4.05;;;13.60;99.90;;;;;;5055294;28;20036;-66
2022/11/04 17:36:33;;;;;;;18.75;3.53;;;13.60;99.90;;;;;;5055248;28;20047;-65
2022/11/04 17:39:38;;;;;;;12.32;2.58;;;13.50;99.90;;;;;;5055009;28;20055;-65